Main page
METAR-TAF:

METAR-TAF

Airports :

Oil platform

J6-a, Netherlands

latitude: 53-49-27N, longitude: 2-56-43E, elevation: 34 m

Current weather observation

The report was made 28 minutes ago, at 23:55 UTC
Wind 15 kt from the Northwest
Temperature 16°C
Humidity 88%
Pressure 1000 hPa
Visibility 10 km or more
drizzle, rain

METAR: EHJA 302355Z AUTO 32015KT 9999 DZRA FEW002/// SCT024/// 16/14 Q1000

Time: 02:23 (00:23 UTC)


TAF: missing

Weather observations and forecasts of more than 4000 airports (METAR and TAF reports).

The available stations are represented by yellow and red dots on the map.

Hover mouse over dot to see the name of the station.

Then click to see weather observations and forecasts.

To change the map : click on the green buttons with a black cross to zoom in, on the green button with a dash to zoom out, or on the green arrows for adjacent maps.


METAR-TAF: